createdAt,value
2023-02-27T00:00:38.918Z,34
2023-02-27T00:01:45.936Z,33
2023-02-27T00:02:53.652Z,33
2023-02-27T00:04:00.805Z,30
2023-02-27T00:05:07.559Z,36
2023-02-27T00:06:14.475Z,39
2023-02-27T00:07:21.341Z,34
2023-02-27T00:08:28.340Z,40
2023-02-27T00:09:35.272Z,27
2023-02-27T00:10:42.252Z,42
2023-02-27T00:11:49.157Z,41
2023-02-27T00:12:56.281Z,36
2023-02-27T00:14:03.460Z,33
2023-02-27T00:15:10.410Z,25
2023-02-27T00:16:17.494Z,34
2023-02-27T00:17:29.091Z,31
2023-02-27T00:18:36.055Z,45
2023-02-27T00:19:42.939Z,38
2023-02-27T00:20:49.918Z,37
2023-02-27T00:22:00.639Z,32
2023-02-27T00:23:07.664Z,30
2023-02-27T00:24:17.856Z,35
2023-02-27T00:25:25.099Z,29
2023-02-27T00:26:31.983Z,28
2023-02-27T00:27:40.847Z,39
2023-02-27T00:28:47.730Z,33
2023-02-27T00:29:54.695Z,32
2023-02-27T00:31:01.701Z,49
2023-02-27T00:32:08.785Z,40
2023-02-27T00:33:15.593Z,35
2023-02-27T00:34:23.649Z,36
2023-02-27T00:35:31.588Z,28
2023-02-27T00:36:40.508Z,39
2023-02-27T00:37:48.795Z,32
2023-02-27T00:38:55.728Z,25
2023-02-27T00:40:02.610Z,34
2023-02-27T00:41:09.855Z,28
2023-02-27T00:42:17.450Z,31
2023-02-27T00:43:24.318Z,33
2023-02-27T00:44:32.977Z,33
2023-02-27T00:45:41.047Z,26
2023-02-27T00:46:47.993Z,32
2023-02-27T00:47:54.927Z,34
2023-02-27T00:49:01.911Z,33
2023-02-27T00:50:09.686Z,30
2023-02-27T00:51:16.580Z,25
2023-02-27T00:52:25.034Z,34
2023-02-27T00:53:31.882Z,41
2023-02-27T00:54:39.750Z,30
2023-02-27T00:55:46.839Z,30
2023-02-27T00:56:58.003Z,29
2023-02-27T00:58:05.049Z,29
2023-02-27T00:59:13.346Z,30
2023-02-27T01:00:20.297Z,33
2023-02-27T01:01:27.458Z,38
2023-02-27T01:02:34.374Z,30
2023-02-27T01:03:41.199Z,36
2023-02-27T01:04:48.962Z,35
2023-02-27T01:05:56.095Z,31
2023-02-27T01:07:02.948Z,35
2023-02-27T01:08:12.756Z,31
2023-02-27T01:09:19.668Z,33
2023-02-27T01:10:28.397Z,33
2023-02-27T01:11:35.400Z,29
2023-02-27T01:12:43.096Z,31
2023-02-27T01:13:51.715Z,25
2023-02-27T01:14:58.908Z,34
2023-02-27T01:16:05.803Z,32
2023-02-27T01:17:12.636Z,28
2023-02-27T01:18:19.604Z,29
2023-02-27T01:19:26.592Z,34
2023-02-27T01:20:34.068Z,27
2023-02-27T01:21:40.999Z,28
2023-02-27T01:22:49.598Z,27
2023-02-27T01:23:56.614Z,30
2023-02-27T01:25:06.585Z,28
2023-02-27T01:26:14.641Z,25
2023-02-27T01:27:21.529Z,25
2023-02-27T01:28:28.697Z,31
2023-02-27T01:29:35.903Z,30
2023-02-27T01:30:42.863Z,31
2023-02-27T01:31:52.526Z,28
2023-02-27T01:32:59.477Z,29
2023-02-27T01:34:06.493Z,31
2023-02-27T01:35:13.762Z,33
2023-02-27T01:36:20.621Z,32
2023-02-27T01:37:27.517Z,36
2023-02-27T01:38:34.683Z,39
2023-02-27T01:39:41.558Z,31
2023-02-27T01:40:48.582Z,34
2023-02-27T01:41:55.621Z,26
2023-02-27T01:43:02.451Z,28
2023-02-27T01:44:10.017Z,27
2023-02-27T01:45:17.039Z,34
2023-02-27T01:46:31.219Z,29
2023-02-27T01:47:38.485Z,29
2023-02-27T01:48:45.397Z,30
2023-02-27T01:49:54.895Z,29
2023-02-27T01:51:05.805Z,25
2023-02-27T01:52:13.279Z,26
2023-02-27T01:53:20.188Z,40
2023-02-27T01:54:31.405Z,30
2023-02-27T01:55:43.329Z,36
2023-02-27T01:56:50.377Z,34
2023-02-27T01:57:57.301Z,29
2023-02-27T01:59:04.214Z,36
2023-02-27T02:00:11.139Z,35
2023-02-27T02:01:20.952Z,30
2023-02-27T02:02:27.840Z,32
2023-02-27T02:03:38.382Z,26
2023-02-27T02:04:50.367Z,35
2023-02-27T02:05:59.436Z,33
2023-02-27T02:07:06.354Z,27
2023-02-27T02:08:13.268Z,35
2023-02-27T02:09:20.512Z,35
2023-02-27T02:10:27.683Z,37
2023-02-27T02:11:34.664Z,36
2023-02-27T02:12:44.396Z,35
2023-02-27T02:13:51.239Z,34
2023-02-27T02:14:58.126Z,32
2023-02-27T02:16:09.436Z,26
2023-02-27T02:17:26.568Z,28
2023-02-27T02:18:40.978Z,28
2023-02-27T02:19:52.923Z,33
2023-02-27T02:21:07.899Z,39
2023-02-27T02:22:30.572Z,28
2023-02-27T02:23:42.566Z,31
2023-02-27T02:24:52.330Z,34
2023-02-27T02:25:59.390Z,27
2023-02-27T02:27:11.447Z,34
2023-02-27T02:28:23.436Z,25
2023-02-27T02:29:40.779Z,29
2023-02-27T02:30:57.880Z,25
2023-02-27T02:32:16.632Z,26
2023-02-27T02:33:31.499Z,30
2023-02-27T02:34:43.467Z,31
2023-02-27T02:35:55.421Z,25
2023-02-27T02:37:07.415Z,27
2023-02-27T02:38:25.089Z,35
2023-02-27T02:39:42.231Z,48
2023-02-27T02:40:54.126Z,46
2023-02-27T02:42:06.142Z,34
2023-02-27T02:43:19.598Z,33
2023-02-27T02:44:31.846Z,33
2023-02-27T02:45:43.941Z,40
2023-02-27T02:46:53.615Z,34
2023-02-27T02:48:08.307Z,52
2023-02-27T02:49:25.440Z,38
2023-02-27T02:50:42.528Z,35
2023-02-27T02:51:59.828Z,38
2023-02-27T02:53:14.490Z,36
2023-02-27T02:54:31.591Z,40
2023-02-27T02:55:48.703Z,41
2023-02-27T02:56:58.242Z,34
2023-02-27T02:58:12.922Z,41
2023-02-27T02:59:27.645Z,38
2023-02-27T03:00:39.681Z,40
2023-02-27T03:01:46.619Z,41
2023-02-27T03:03:04.046Z,33
2023-02-27T03:04:17.252Z,32
2023-02-27T03:05:29.177Z,39
2023-02-27T03:06:36.655Z,36
2023-02-27T03:07:48.996Z,37
2023-02-27T03:09:01.452Z,35
2023-02-27T03:10:16.523Z,27
2023-02-27T03:11:23.484Z,38
2023-02-27T03:12:31.239Z,33
2023-02-27T03:13:38.186Z,33
2023-02-27T03:14:50.087Z,36
2023-02-27T03:16:08.081Z,34
2023-02-27T03:17:17.951Z,37
2023-02-27T03:18:24.930Z,37
2023-02-27T03:19:34.555Z,41
2023-02-27T03:20:41.447Z,41
2023-02-27T03:21:50.981Z,37
2023-02-27T03:23:03.025Z,43
2023-02-27T03:24:12.989Z,30
2023-02-27T03:25:24.926Z,31
2023-02-27T03:26:31.945Z,33
2023-02-27T03:27:38.917Z,30
2023-02-27T03:28:48.547Z,40
2023-02-27T03:29:58.432Z,33
2023-02-27T03:31:10.724Z,28
2023-02-27T03:32:21.931Z,31
2023-02-27T03:33:34.666Z,26
2023-02-27T03:34:41.597Z,28
2023-02-27T03:35:48.571Z,26
2023-02-27T03:36:58.593Z,30
2023-02-27T03:38:12.969Z,26
2023-02-27T03:39:25.025Z,25
2023-02-27T03:40:35.071Z,29
2023-02-27T03:41:43.612Z,33
2023-02-27T03:42:56.301Z,30
2023-02-27T03:44:06.340Z,27
2023-02-27T03:45:16.318Z,29
2023-02-27T03:46:25.990Z,36
2023-02-27T03:47:32.856Z,33
2023-02-27T03:48:39.736Z,29
2023-02-27T03:49:50.386Z,25
2023-02-27T03:50:58.099Z,29
2023-02-27T03:52:05.091Z,40
2023-02-27T03:53:12.272Z,46
2023-02-27T03:54:29.640Z,41
2023-02-27T03:55:37.487Z,36
2023-02-27T03:56:44.386Z,35
2023-02-27T03:57:52.771Z,35
2023-02-27T03:59:00.297Z,30
2023-02-27T04:00:07.264Z,35
2023-02-27T04:01:14.516Z,30
2023-02-27T04:02:24.260Z,31
2023-02-27T04:03:31.285Z,29
2023-02-27T04:04:38.186Z,25
2023-02-27T04:05:47.765Z,25
2023-02-27T04:06:55.042Z,26
2023-02-27T04:08:06.935Z,27
2023-02-27T04:09:22.277Z,28
2023-02-27T04:10:34.219Z,34
2023-02-27T04:11:49.223Z,33
2023-02-27T04:13:06.380Z,29
2023-02-27T04:14:23.409Z,27
2023-02-27T04:15:33.973Z,25
2023-02-27T04:16:42.456Z,34
2023-02-27T04:17:56.843Z,32
2023-02-27T04:19:08.901Z,30
2023-02-27T04:20:18.680Z,34
2023-02-27T04:21:37.815Z,32
2023-02-27T04:22:52.647Z,29
2023-02-27T04:24:03.781Z,28
2023-02-27T04:25:20.648Z,35
2023-02-27T04:26:35.471Z,44
2023-02-27T04:27:55.119Z,42
2023-02-27T04:29:08.698Z,29
2023-02-27T04:30:24.300Z,25
2023-02-27T04:31:36.470Z,41
2023-02-27T04:32:56.569Z,32
2023-02-27T04:34:11.516Z,25
2023-02-27T04:35:28.852Z,37
2023-02-27T04:36:35.717Z,27
2023-02-27T04:37:45.350Z,37
2023-02-27T04:38:52.363Z,27
2023-02-27T04:40:04.826Z,28
2023-02-27T04:41:17.343Z,26
2023-02-27T04:42:26.937Z,31
2023-02-27T04:43:33.856Z,29
2023-02-27T04:44:40.899Z,31
2023-02-27T04:45:48.659Z,38
2023-02-27T04:46:57.119Z,33
2023-02-27T04:48:04.183Z,27
2023-02-27T04:49:11.020Z,32
2023-02-27T04:50:26.197Z,33
2023-02-27T04:51:38.573Z,28
2023-02-27T04:52:50.579Z,37
2023-02-27T04:54:02.552Z,32
2023-02-27T04:55:14.326Z,41
2023-02-27T04:56:21.767Z,36
2023-02-27T04:57:28.824Z,47
2023-02-27T04:58:38.228Z,38
2023-02-27T04:59:45.121Z,40
2023-02-27T05:00:52.352Z,36
2023-02-27T05:01:59.591Z,34
2023-02-27T05:03:07.132Z,30
2023-02-27T05:04:14.056Z,37
2023-02-27T05:05:20.896Z,38
2023-02-27T05:06:27.812Z,39
2023-02-27T05:07:38.260Z,40
2023-02-27T05:08:45.132Z,32
2023-02-27T05:09:57.070Z,43
2023-02-27T05:11:07.019Z,40
2023-02-27T05:12:18.977Z,43
2023-02-27T05:13:36.068Z,37
2023-02-27T05:14:49.069Z,42
2023-02-27T05:15:56.009Z,51
2023-02-27T05:17:07.966Z,46
2023-02-27T05:18:23.379Z,47
2023-02-27T05:19:30.866Z,49
2023-02-27T05:20:40.750Z,59
2023-02-27T05:21:55.358Z,47
2023-02-27T05:23:07.311Z,46
2023-02-27T05:24:14.190Z,45
2023-02-27T05:25:31.941Z,48
2023-02-27T05:26:41.089Z,46
2023-02-27T05:27:55.942Z,42
2023-02-27T05:29:05.674Z,39
2023-02-27T05:30:21.539Z,63
2023-02-27T05:31:36.601Z,50
2023-02-27T05:32:48.586Z,46
2023-02-27T05:33:58.389Z,47
2023-02-27T05:35:08.003Z,50
2023-02-27T05:36:20.077Z,52
2023-02-27T05:37:32.011Z,47
2023-02-27T05:38:49.131Z,54
2023-02-27T05:39:56.100Z,48
2023-02-27T05:41:02.959Z,49
2023-02-27T05:42:14.961Z,51
2023-02-27T05:43:21.830Z,43
2023-02-27T05:44:28.859Z,48
2023-02-27T05:45:41.929Z,62
2023-02-27T05:46:48.774Z,63
2023-02-27T05:48:03.414Z,56
2023-02-27T05:49:15.393Z,58
2023-02-27T05:50:22.256Z,57
2023-02-27T05:51:31.061Z,56
2023-02-27T05:52:37.997Z,60
2023-02-27T05:53:46.774Z,69
2023-02-27T05:54:56.352Z,72
2023-02-27T05:56:08.581Z,58
2023-02-27T05:57:17.947Z,58
2023-02-27T05:58:27.713Z,57
2023-02-27T05:59:39.884Z,67
2023-02-27T06:00:50.536Z,61
2023-02-27T06:02:43.041Z,61
2023-02-27T06:03:04.395Z,65
2023-02-27T06:04:11.201Z,60
2023-02-27T06:05:18.129Z,59
2023-02-27T06:06:25.234Z,60
2023-02-27T06:07:31.906Z,58
2023-02-27T06:08:38.770Z,69
2023-02-27T06:09:45.639Z,59
2023-02-27T06:10:52.498Z,58
2023-02-27T06:11:59.321Z,69
2023-02-27T06:13:06.251Z,65
2023-02-27T06:14:16.026Z,69
2023-02-27T06:15:24.630Z,67
2023-02-27T06:16:35.577Z,66
2023-02-27T06:17:43.262Z,64
2023-02-27T06:18:54.681Z,66
2023-02-27T06:20:02.479Z,73
2023-02-27T06:21:12.577Z,64
2023-02-27T06:22:19.485Z,84
2023-02-27T06:23:28.242Z,77
2023-02-27T06:24:35.101Z,87
2023-02-27T06:25:41.915Z,82
2023-02-27T06:26:49.626Z,80
2023-02-27T06:27:56.530Z,71
2023-02-27T06:29:03.318Z,78
2023-02-27T06:30:10.212Z,74
2023-02-27T06:31:20.113Z,73
2023-02-27T06:32:26.924Z,72
2023-02-27T06:33:33.795Z,78
2023-02-27T06:34:40.691Z,81
2023-02-27T06:35:50.546Z,88
2023-02-27T06:36:57.305Z,77
2023-02-27T06:38:04.236Z,80
2023-02-27T06:39:13.113Z,96
2023-02-27T06:40:19.960Z,89
2023-02-27T06:41:26.862Z,86
2023-02-27T06:42:34.528Z,84
2023-02-27T06:43:44.416Z,90
2023-02-27T06:44:51.384Z,93
2023-02-27T06:45:58.232Z,88
2023-02-27T06:47:05.036Z,94
2023-02-27T06:48:11.873Z,88
2023-02-27T06:49:18.788Z,97
2023-02-27T06:50:26.687Z,104
2023-02-27T06:51:34.250Z,102
2023-02-27T06:52:41.010Z,92
2023-02-27T06:53:47.819Z,96
2023-02-27T06:54:54.672Z,91
2023-02-27T06:56:01.646Z,91
2023-02-27T06:57:08.847Z,91
2023-02-27T06:58:15.651Z,97
2023-02-27T06:59:22.430Z,94
2023-02-27T07:00:29.295Z,94
2023-02-27T07:01:36.141Z,94
2023-02-27T07:02:42.922Z,92
2023-02-27T07:03:49.736Z,88
2023-02-27T07:04:56.588Z,86
2023-02-27T07:06:03.472Z,94
2023-02-27T07:07:32.223Z,104
2023-02-27T07:08:18.191Z,90
2023-02-27T07:09:25.216Z,87
2023-02-27T07:10:32.360Z,93
2023-02-27T07:11:39.245Z,84
2023-02-27T07:12:48.112Z,86
2023-02-27T07:13:54.984Z,90
2023-02-27T07:15:02.896Z,96
2023-02-27T07:16:09.919Z,89
2023-02-27T07:17:16.727Z,91
2023-02-27T07:18:23.644Z,86
2023-02-27T07:19:30.493Z,86
2023-02-27T07:20:38.197Z,93
2023-02-27T07:21:46.725Z,88
2023-02-27T07:22:54.531Z,86
2023-02-27T07:24:01.449Z,82
2023-02-27T07:25:08.406Z,84
2023-02-27T07:26:15.220Z,85
2023-02-27T07:27:22.086Z,81
2023-02-27T07:28:29.767Z,82
2023-02-27T07:29:36.793Z,89
2023-02-27T07:30:43.891Z,90
2023-02-27T07:31:51.012Z,83
2023-02-27T07:32:57.801Z,84
2023-02-27T07:34:04.832Z,83
2023-02-27T07:35:11.871Z,83
2023-02-27T07:36:18.782Z,80
2023-02-27T07:37:27.910Z,80
2023-02-27T07:38:32.560Z,80
2023-02-27T07:39:39.424Z,81
2023-02-27T07:40:46.391Z,70
2023-02-27T07:41:53.964Z,78
2023-02-27T07:43:00.807Z,68
2023-02-27T07:44:07.640Z,69
2023-02-27T07:45:14.492Z,78
2023-02-27T07:46:27.404Z,80
2023-02-27T07:47:33.863Z,77
2023-02-27T07:48:41.732Z,80
2023-02-27T07:49:48.676Z,70
2023-02-27T07:50:55.776Z,85
2023-02-27T07:52:02.593Z,70
2023-02-27T07:53:09.384Z,70
2023-02-27T07:54:16.327Z,67
2023-02-27T07:55:23.309Z,61
2023-02-27T07:56:30.725Z,57
2023-02-27T07:57:40.277Z,47
2023-02-27T07:58:47.126Z,49
2023-02-27T07:59:55.516Z,39
2023-02-27T08:01:02.474Z,45
2023-02-27T08:02:09.359Z,60
2023-02-27T08:03:16.404Z,51
2023-02-27T08:04:23.307Z,54
2023-02-27T08:05:30.049Z,44
2023-02-27T08:06:37.664Z,46
2023-02-27T08:07:44.666Z,53
2023-02-27T08:08:51.460Z,40
2023-02-27T08:09:58.345Z,45
2023-02-27T08:11:06.284Z,46
2023-02-27T08:12:13.079Z,38
2023-02-27T08:13:25.153Z,36
2023-02-27T08:14:27.605Z,43
2023-02-27T08:15:34.520Z,33
2023-02-27T08:16:41.329Z,27
2023-02-27T08:17:48.173Z,30
2023-02-27T08:18:55.107Z,49
2023-02-27T08:20:01.940Z,42
2023-02-27T08:21:09.055Z,46
2023-02-27T08:22:17.279Z,51
2023-02-27T08:23:24.065Z,46
2023-02-27T08:24:30.933Z,39
2023-02-27T08:25:38.791Z,35
2023-02-27T08:26:45.579Z,49
2023-02-27T08:27:52.512Z,32
2023-02-27T08:29:01.997Z,37
2023-02-27T08:30:08.794Z,37
2023-02-27T08:31:17.032Z,31
2023-02-27T08:32:23.986Z,32
2023-02-27T08:33:31.679Z,36
2023-02-27T08:34:38.615Z,54
2023-02-27T08:35:48.487Z,61
2023-02-27T08:36:55.339Z,55
2023-02-27T08:38:02.145Z,54
2023-02-27T08:39:08.969Z,56
2023-02-27T08:40:15.838Z,51
2023-02-27T08:41:24.929Z,48
2023-02-27T08:42:32.792Z,48
2023-02-27T08:43:41.612Z,50
2023-02-27T08:44:49.848Z,60
2023-02-27T08:46:00.067Z,62
2023-02-27T08:47:06.836Z,66
2023-02-27T08:48:15.636Z,56
2023-02-27T08:49:22.532Z,50
2023-02-27T08:50:29.684Z,53
2023-02-27T08:51:38.585Z,53
2023-02-27T08:52:47.039Z,63
2023-02-27T08:53:54.007Z,64
2023-02-27T08:55:00.839Z,66
2023-02-27T08:56:07.756Z,73
2023-02-27T08:57:17.962Z,62
2023-02-27T08:58:24.839Z,64
2023-02-27T08:59:31.719Z,69
2023-02-27T09:00:39.902Z,61
2023-02-27T09:01:49.272Z,61
2023-02-27T09:02:58.625Z,63
2023-02-27T09:04:05.513Z,63
2023-02-27T09:05:12.428Z,70
2023-02-27T09:06:25.856Z,63
2023-02-27T09:07:30.348Z,56
2023-02-27T09:08:37.280Z,68
2023-02-27T09:09:44.209Z,64
2023-02-27T09:10:55.729Z,61
2023-02-27T09:12:02.630Z,66
2023-02-27T09:13:09.845Z,77
2023-02-27T09:14:17.785Z,77
2023-02-27T09:15:24.665Z,78
2023-02-27T09:16:32.453Z,85
2023-02-27T09:17:39.484Z,73
2023-02-27T09:18:49.474Z,63
2023-02-27T09:19:57.464Z,67
2023-02-27T09:21:03.869Z,62
2023-02-27T09:22:10.787Z,59
2023-02-27T09:23:18.411Z,71
2023-02-27T09:24:25.346Z,74
2023-02-27T09:25:32.339Z,77
2023-02-27T09:26:45.130Z,68
2023-02-27T09:27:46.389Z,77
2023-02-27T09:28:53.264Z,73
2023-02-27T09:30:00.773Z,70
2023-02-27T09:31:10.304Z,79
2023-02-27T09:32:17.409Z,72
2023-02-27T09:33:24.293Z,83
2023-02-27T09:34:31.249Z,102
2023-02-27T09:35:38.336Z,85
2023-02-27T09:36:47.703Z,77
2023-02-27T09:37:55.780Z,73
2023-02-27T09:39:05.450Z,71
2023-02-27T09:40:12.597Z,67
2023-02-27T09:41:28.025Z,67
2023-02-27T09:42:45.755Z,89
2023-02-27T09:43:52.508Z,72
2023-02-27T09:44:59.460Z,77
2023-02-27T09:46:06.525Z,78
2023-02-27T09:47:13.465Z,83
2023-02-27T09:48:28.336Z,72
2023-02-27T09:49:38.176Z,83
2023-02-27T09:50:55.457Z,78
2023-02-27T09:52:02.540Z,90
2023-02-27T09:53:09.502Z,84
2023-02-27T09:54:19.365Z,77
2023-02-27T09:55:26.481Z,71
2023-02-27T09:56:34.388Z,62
2023-02-27T09:57:49.089Z,68
2023-02-27T09:59:01.088Z,64
2023-02-27T10:00:18.154Z,65
2023-02-27T10:01:33.904Z,73
2023-02-27T10:02:40.890Z,111
2023-02-27T10:03:47.770Z,92
2023-02-27T10:05:05.065Z,80
2023-02-27T10:06:22.899Z,72
2023-02-27T10:07:34.951Z,69
2023-02-27T10:08:52.041Z,66
2023-02-27T10:10:06.477Z,67
2023-02-27T10:11:23.295Z,43
2023-02-27T10:12:41.150Z,53
2023-02-27T10:13:58.177Z,44
2023-02-27T10:15:07.964Z,36
2023-02-27T10:16:20.005Z,38
2023-02-27T10:17:27.416Z,50
2023-02-27T10:18:34.398Z,40
2023-02-27T10:19:47.392Z,33
2023-02-27T10:20:54.391Z,42
2023-02-27T10:22:04.104Z,34
2023-02-27T10:23:11.109Z,41
2023-02-27T10:24:20.264Z,26
2023-02-27T10:25:32.567Z,37
2023-02-27T10:26:42.081Z,25
2023-02-27T10:27:49.178Z,33
2023-02-27T10:28:58.269Z,36
2023-02-27T10:30:17.406Z,50
2023-02-27T10:31:28.509Z,29
2023-02-27T10:32:35.788Z,34
2023-02-27T10:33:44.244Z,31
2023-02-27T10:34:51.194Z,25
2023-02-27T10:36:02.053Z,39
2023-02-27T10:37:07.357Z,58
2023-02-27T10:38:14.257Z,45
2023-02-27T10:39:21.527Z,64
2023-02-27T10:40:32.322Z,69
2023-02-27T10:41:39.899Z,53
2023-02-27T10:42:46.261Z,40
2023-02-27T10:43:56.380Z,35
2023-02-27T10:45:03.490Z,34
2023-02-27T10:46:10.877Z,27
2023-02-27T10:47:23.510Z,35
2023-02-27T10:48:30.495Z,35
2023-02-27T10:49:37.609Z,25
2023-02-27T10:50:48.831Z,33
2023-02-27T10:51:56.269Z,26
2023-02-27T10:53:09.408Z,32
2023-02-27T10:54:24.331Z,31
2023-02-27T10:55:31.276Z,25
2023-02-27T10:56:41.819Z,25
2023-02-27T10:57:48.799Z,30
2023-02-27T10:58:58.495Z,25
2023-02-27T11:00:08.333Z,39
2023-02-27T11:01:20.684Z,31
2023-02-27T11:02:30.354Z,42
2023-02-27T11:03:44.148Z,58
2023-02-27T11:04:55.052Z,42
2023-02-27T11:06:03.106Z,25
2023-02-27T11:07:10.309Z,27
2023-02-27T11:08:17.220Z,27
2023-02-27T11:09:26.822Z,49
2023-02-27T11:10:33.884Z,58
2023-02-27T11:11:41.675Z,38
2023-02-27T11:12:48.921Z,33
2023-02-27T11:14:06.278Z,41
2023-02-27T11:15:23.416Z,30
2023-02-27T11:16:30.341Z,39
2023-02-27T11:17:37.270Z,31
2023-02-27T11:18:45.412Z,30
2023-02-27T11:19:55.395Z,35
2023-02-27T11:21:02.521Z,35
2023-02-27T11:22:12.452Z,25
2023-02-27T11:23:21.865Z,31
2023-02-27T11:24:29.212Z,25
2023-02-27T11:25:36.668Z,39
2023-02-27T11:26:43.518Z,31
2023-02-27T11:27:58.686Z,38
2023-02-27T11:29:16.924Z,39
2023-02-27T11:30:24.146Z,47
2023-02-27T11:31:34.085Z,43
2023-02-27T11:32:40.928Z,40
2023-02-27T11:33:48.163Z,42
2023-02-27T11:34:55.185Z,59
2023-02-27T11:36:03.332Z,70
2023-02-27T11:37:10.327Z,46
2023-02-27T11:38:27.534Z,36
2023-02-27T11:39:34.490Z,38
2023-02-27T11:40:41.417Z,27
2023-02-27T11:41:56.072Z,55
2023-02-27T11:43:05.812Z,56
2023-02-27T11:44:22.522Z,50
2023-02-27T11:46:04.030Z,61
2023-02-27T11:46:48.224Z,77
2023-02-27T11:47:57.519Z,63
2023-02-27T11:49:02.806Z,60
2023-02-27T11:50:10.746Z,52
2023-02-27T11:51:22.864Z,38
2023-02-27T11:52:39.743Z,37
2023-02-27T11:53:54.332Z,40
2023-02-27T11:55:11.663Z,40
2023-02-27T11:56:18.673Z,42
2023-02-27T11:57:29.829Z,46
2023-02-27T11:58:36.910Z,44
2023-02-27T11:59:51.609Z,36
2023-02-27T12:01:01.624Z,36
2023-02-27T12:02:11.438Z,41
2023-02-27T12:03:26.294Z,35
2023-02-27T12:04:47.415Z,35
2023-02-27T12:06:00.589Z,38
2023-02-27T12:07:07.794Z,44
2023-02-27T12:08:19.918Z,46
2023-02-27T12:09:37.045Z,41
2023-02-27T12:10:49.334Z,62
2023-02-27T12:11:58.800Z,53
2023-02-27T12:13:07.408Z,49
2023-02-27T12:14:23.035Z,40
2023-02-27T12:15:37.627Z,31
2023-02-27T12:16:50.195Z,31
2023-02-27T12:18:05.121Z,31
2023-02-27T12:19:15.068Z,28
2023-02-27T12:20:23.089Z,39
2023-02-27T12:21:36.119Z,46
2023-02-27T12:22:50.721Z,26
2023-02-27T12:23:57.650Z,31
2023-02-27T12:25:13.272Z,52
2023-02-27T12:26:30.151Z,30
2023-02-27T12:27:36.867Z,46
2023-02-27T12:28:49.636Z,32
2023-02-27T12:30:01.575Z,33
2023-02-27T12:31:11.594Z,28
2023-02-27T12:32:28.566Z,25
2023-02-27T12:33:38.530Z,31
2023-02-27T12:34:53.518Z,34
2023-02-27T12:36:01.100Z,34
2023-02-27T12:37:08.413Z,37
2023-02-27T12:38:15.476Z,41
2023-02-27T12:39:24.513Z,30
2023-02-27T12:40:32.299Z,30
2023-02-27T12:41:47.268Z,35
2023-02-27T12:42:59.859Z,45
2023-02-27T12:44:15.899Z,36
2023-02-27T12:45:28.079Z,33
2023-02-27T12:46:45.057Z,56
2023-02-27T12:47:52.035Z,58
2023-02-27T12:49:03.923Z,49
2023-02-27T12:50:16.383Z,55
2023-02-27T12:51:24.773Z,48
2023-02-27T12:52:39.743Z,47
2023-02-27T12:53:54.626Z,52
2023-02-27T12:55:12.483Z,53
2023-02-27T12:56:23.611Z,59
2023-02-27T12:57:31.410Z,60
2023-02-27T12:58:46.220Z,45
2023-02-27T12:59:59.089Z,51
2023-02-27T13:01:13.067Z,48
2023-02-27T13:02:28.672Z,43
2023-02-27T13:03:45.757Z,38
2023-02-27T13:04:58.487Z,37
2023-02-27T13:06:08.684Z,36
2023-02-27T13:07:21.424Z,34
2023-02-27T13:08:28.445Z,33
2023-02-27T13:09:45.540Z,46
2023-02-27T13:11:02.623Z,37
2023-02-27T13:12:14.626Z,37
2023-02-27T13:13:27.113Z,46
2023-02-27T13:14:40.789Z,50
2023-02-27T13:15:53.449Z,45
2023-02-27T13:17:09.270Z,40
2023-02-27T13:18:16.985Z,32
2023-02-27T13:19:30.004Z,47
2023-02-27T13:20:42.090Z,39
2023-02-27T13:21:51.877Z,27
2023-02-27T13:22:59.722Z,53
2023-02-27T13:24:14.677Z,30
2023-02-27T13:25:26.123Z,34
2023-02-27T13:26:33.494Z,27
2023-02-27T13:27:40.511Z,46
2023-02-27T13:28:51.324Z,39
2023-02-27T13:29:58.315Z,55
2023-02-27T13:31:09.087Z,54
2023-02-27T13:32:20.166Z,29
2023-02-27T13:33:28.766Z,43
2023-02-27T13:34:44.023Z,39
2023-02-27T13:35:54.610Z,36
2023-02-27T13:37:11.694Z,33
2023-02-27T13:38:21.563Z,37
2023-02-27T13:39:38.573Z,50
2023-02-27T13:40:48.619Z,42
2023-02-27T13:41:55.521Z,44
2023-02-27T13:43:05.543Z,25
2023-02-27T13:44:22.669Z,41
2023-02-27T13:45:29.612Z,31
2023-02-27T13:46:46.815Z,42
2023-02-27T13:47:55.502Z,36
2023-02-27T13:49:00.786Z,32
2023-02-27T13:50:10.384Z,25
2023-02-27T13:51:22.510Z,34
2023-02-27T13:52:40.352Z,26
2023-02-27T13:53:47.270Z,31
2023-02-27T13:54:59.842Z,30
2023-02-27T13:56:03.452Z,44
2023-02-27T13:57:21.506Z,33
2023-02-27T13:58:28.794Z,35
2023-02-27T13:59:36.512Z,36
2023-02-27T14:00:45.957Z,66
2023-02-27T14:02:02.129Z,62
2023-02-27T14:03:14.195Z,70
2023-02-27T14:04:27.180Z,46
2023-02-27T14:05:37.324Z,46
2023-02-27T14:06:44.267Z,30
2023-02-27T14:07:51.703Z,51
2023-02-27T14:09:12.701Z,42
2023-02-27T14:10:05.718Z,53
2023-02-27T14:11:12.984Z,44
2023-02-27T14:12:20.067Z,57
2023-02-27T14:13:29.716Z,51
2023-02-27T14:14:51.139Z,29
2023-02-27T14:15:58.362Z,25
2023-02-27T14:17:05.556Z,39
2023-02-27T14:18:22.915Z,59
2023-02-27T14:19:29.691Z,38
2023-02-27T14:20:44.434Z,36
2023-02-27T14:21:51.340Z,38
2023-02-27T14:23:03.909Z,43
2023-02-27T14:24:16.168Z,40
2023-02-27T14:25:28.355Z,26
2023-02-27T14:26:38.684Z,45
2023-02-27T14:27:45.620Z,35
2023-02-27T14:28:58.631Z,51
2023-02-27T14:30:05.971Z,33
2023-02-27T14:31:13.501Z,25
2023-02-27T14:32:26.592Z,35
2023-02-27T14:33:40.296Z,34
2023-02-27T14:34:49.743Z,29
2023-02-27T14:35:59.926Z,30
2023-02-27T14:37:07.094Z,38
2023-02-27T14:38:14.088Z,39
2023-02-27T14:39:21.201Z,26
2023-02-27T14:40:36.217Z,46
2023-02-27T14:41:50.845Z,61
2023-02-27T14:43:08.437Z,53
2023-02-27T14:44:21.240Z,34
2023-02-27T14:45:28.351Z,33
2023-02-27T14:46:38.280Z,26
2023-02-27T14:47:45.268Z,35
2023-02-27T14:48:53.259Z,38
2023-02-27T14:50:02.992Z,48
2023-02-27T14:51:12.143Z,57
2023-02-27T14:52:22.032Z,57
2023-02-27T14:53:28.974Z,57
2023-02-27T14:54:35.954Z,66
2023-02-27T14:55:44.886Z,71
2023-02-27T14:56:59.680Z,61
2023-02-27T14:58:07.553Z,76
2023-02-27T14:59:20.753Z,75
2023-02-27T15:00:32.839Z,86
2023-02-27T15:01:45.631Z,76
2023-02-27T15:02:52.806Z,77
2023-02-27T15:04:02.815Z,82
2023-02-27T15:05:09.702Z,75
2023-02-27T15:06:19.733Z,67
2023-02-27T15:07:34.763Z,74
2023-02-27T15:08:42.471Z,76
2023-02-27T15:09:50.219Z,77
2023-02-27T15:10:58.048Z,78
2023-02-27T15:12:05.243Z,76
2023-02-27T15:13:12.008Z,97
2023-02-27T15:14:26.967Z,96
2023-02-27T15:15:34.440Z,87
2023-02-27T15:16:41.486Z,80
2023-02-27T15:17:50.984Z,83
2023-02-27T15:18:58.610Z,84
2023-02-27T15:20:18.465Z,89
2023-02-27T15:21:31.249Z,88
2023-02-27T15:22:40.038Z,90
2023-02-27T15:23:48.895Z,86
2023-02-27T15:25:01.924Z,90
2023-02-27T15:26:12.684Z,99
2023-02-27T15:27:19.751Z,86
2023-02-27T15:28:30.559Z,91
2023-02-27T15:29:37.543Z,94
2023-02-27T15:30:48.165Z,110
2023-02-27T15:31:59.104Z,101
2023-02-27T15:33:12.772Z,105
2023-02-27T15:34:23.646Z,108
2023-02-27T15:35:30.799Z,113
2023-02-27T15:36:41.072Z,123
2023-02-27T15:37:48.217Z,119
2023-02-27T15:39:00.682Z,96
2023-02-27T15:40:15.719Z,101
2023-02-27T15:41:25.904Z,103
2023-02-27T15:42:32.545Z,110
2023-02-27T15:43:44.541Z,106
2023-02-27T15:44:52.010Z,98
2023-02-27T15:45:59.618Z,118
2023-02-27T15:47:09.443Z,116
2023-02-27T15:48:16.486Z,98
2023-02-27T15:49:23.396Z,104
2023-02-27T15:50:30.299Z,98
2023-02-27T15:51:37.735Z,98
2023-02-27T15:52:48.074Z,87
2023-02-27T15:54:00.263Z,96
2023-02-27T15:55:07.642Z,93
2023-02-27T15:56:17.367Z,94
2023-02-27T15:57:26.944Z,91
2023-02-27T15:58:35.333Z,94
2023-02-27T15:59:42.434Z,96
2023-02-27T16:00:49.367Z,92
2023-02-27T16:02:06.970Z,74
2023-02-27T16:03:13.996Z,85
2023-02-27T16:04:23.913Z,78
2023-02-27T16:05:30.880Z,77
2023-02-27T16:06:38.688Z,73
2023-02-27T16:07:45.959Z,66
2023-02-27T16:08:53.234Z,67
2023-02-27T16:10:03.954Z,68
2023-02-27T16:11:11.270Z,61
2023-02-27T16:12:25.766Z,74
2023-02-27T16:13:35.512Z,64
2023-02-27T16:14:42.647Z,69
2023-02-27T16:15:52.675Z,69
2023-02-27T16:17:06.905Z,61
2023-02-27T16:18:24.188Z,70
2023-02-27T16:19:36.664Z,71
2023-02-27T16:20:44.010Z,71
2023-02-27T16:21:50.965Z,76
2023-02-27T16:23:06.072Z,78
2023-02-27T16:24:13.124Z,80
2023-02-27T16:25:23.961Z,77
2023-02-27T16:26:31.464Z,64
2023-02-27T16:27:38.040Z,72
2023-02-27T16:28:47.745Z,63
2023-02-27T16:30:02.767Z,60
2023-02-27T16:31:09.752Z,65
2023-02-27T16:32:21.857Z,69